sensor_id;sensor_type;location;lat;lon;timestamp;P1;durP1;ratioP1;P2;durP2;ratioP2
24407;SDS011;12542;50.924;4.516;2023-09-08T00:01:37;10.23;;;7.22;;
24407;SDS011;12542;50.924;4.516;2023-09-08T00:04:03;11.05;;;7.90;;
24407;SDS011;12542;50.924;4.516;2023-09-08T00:06:29;11.00;;;8.70;;
24407;SDS011;12542;50.924;4.516;2023-09-08T00:08:55;14.90;;;8.40;;
24407;SDS011;12542;50.924;4.516;2023-09-08T00:11:21;12.90;;;8.48;;
24407;SDS011;12542;50.924;4.516;2023-09-08T00:13:46;11.63;;;8.63;;
24407;SDS011;12542;50.924;4.516;2023-09-08T00:16:15;14.55;;;9.32;;
24407;SDS011;12542;50.924;4.516;2023-09-08T00:18:41;14.73;;;9.45;;
24407;SDS011;12542;50.924;4.516;2023-09-08T00:21:06;13.27;;;8.75;;
24407;SDS011;12542;50.924;4.516;2023-09-08T00:23:32;11.38;;;9.05;;
24407;SDS011;12542;50.924;4.516;2023-09-08T00:25:58;14.30;;;8.98;;
24407;SDS011;12542;50.924;4.516;2023-09-08T00:28:24;14.60;;;7.63;;
24407;SDS011;12542;50.924;4.516;2023-09-08T00:30:49;9.45;;;7.63;;
24407;SDS011;12542;50.924;4.516;2023-09-08T00:33:15;10.20;;;7.25;;
24407;SDS011;12542;50.924;4.516;2023-09-08T00:35:44;12.18;;;8.10;;
24407;SDS011;12542;50.924;4.516;2023-09-08T00:38:13;11.07;;;7.70;;
24407;SDS011;12542;50.924;4.516;2023-09-08T00:40:38;11.13;;;7.63;;
24407;SDS011;12542;50.924;4.516;2023-09-08T00:43:04;15.98;;;8.52;;
24407;SDS011;12542;50.924;4.516;2023-09-08T00:45:30;11.60;;;8.00;;
24407;SDS011;12542;50.924;4.516;2023-09-08T00:47:56;12.10;;;7.40;;
24407;SDS011;12542;50.924;4.516;2023-09-08T00:50:21;12.10;;;7.50;;
24407;SDS011;12542;50.924;4.516;2023-09-08T00:52:47;9.70;;;7.55;;
24407;SDS011;12542;50.924;4.516;2023-09-08T00:55:13;12.70;;;8.32;;
24407;SDS011;12542;50.924;4.516;2023-09-08T00:57:39;12.02;;;8.40;;
24407;SDS011;12542;50.924;4.516;2023-09-08T01:00:05;10.57;;;7.82;;
24407;SDS011;12542;50.924;4.516;2023-09-08T01:02:34;11.00;;;8.77;;
24407;SDS011;12542;50.924;4.516;2023-09-08T01:04:59;11.02;;;8.15;;
24407;SDS011;12542;50.924;4.516;2023-09-08T01:07:26;13.23;;;8.07;;
24407;SDS011;12542;50.924;4.516;2023-09-08T01:09:55;11.50;;;8.00;;
24407;SDS011;12542;50.924;4.516;2023-09-08T01:12:21;11.13;;;8.00;;
24407;SDS011;12542;50.924;4.516;2023-09-08T01:14:47;11.07;;;8.02;;
24407;SDS011;12542;50.924;4.516;2023-09-08T01:17:12;15.07;;;8.20;;
24407;SDS011;12542;50.924;4.516;2023-09-08T01:19:38;11.55;;;8.68;;
24407;SDS011;12542;50.924;4.516;2023-09-08T01:22:16;11.48;;;7.60;;
24407;SDS011;12542;50.924;4.516;2023-09-08T01:25:01;13.98;;;7.65;;
24407;SDS011;12542;50.924;4.516;2023-09-08T01:27:37;10.98;;;6.93;;
24407;SDS011;12542;50.924;4.516;2023-09-08T01:30:05;10.00;;;8.30;;
24407;SDS011;12542;50.924;4.516;2023-09-08T01:32:31;9.77;;;8.18;;
24407;SDS011;12542;50.924;4.516;2023-09-08T01:34:58;10.90;;;7.70;;
24407;SDS011;12542;50.924;4.516;2023-09-08T01:37:26;9.68;;;7.90;;
24407;SDS011;12542;50.924;4.516;2023-09-08T01:39:54;11.68;;;8.20;;
24407;SDS011;12542;50.924;4.516;2023-09-08T01:42:19;12.50;;;7.82;;
24407;SDS011;12542;50.924;4.516;2023-09-08T01:44:45;12.35;;;8.45;;
24407;SDS011;12542;50.924;4.516;2023-09-08T01:47:10;9.52;;;7.25;;
24407;SDS011;12542;50.924;4.516;2023-09-08T01:49:36;11.48;;;7.60;;
24407;SDS011;12542;50.924;4.516;2023-09-08T01:52:02;13.27;;;8.18;;
24407;SDS011;12542;50.924;4.516;2023-09-08T01:54:28;11.52;;;7.57;;
24407;SDS011;12542;50.924;4.516;2023-09-08T01:56:53;11.90;;;7.57;;
24407;SDS011;12542;50.924;4.516;2023-09-08T01:59:21;9.65;;;7.43;;
24407;SDS011;12542;50.924;4.516;2023-09-08T02:01:47;10.10;;;7.45;;
24407;SDS011;12542;50.924;4.516;2023-09-08T02:04:13;12.00;;;7.63;;
24407;SDS011;12542;50.924;4.516;2023-09-08T02:06:38;12.80;;;7.88;;
24407;SDS011;12542;50.924;4.516;2023-09-08T02:09:04;9.82;;;7.15;;
24407;SDS011;12542;50.924;4.516;2023-09-08T02:11:30;11.20;;;8.00;;
24407;SDS011;12542;50.924;4.516;2023-09-08T02:13:55;11.00;;;8.40;;
24407;SDS011;12542;50.924;4.516;2023-09-08T02:16:21;12.10;;;8.38;;
24407;SDS011;12542;50.924;4.516;2023-09-08T02:18:47;10.40;;;7.88;;
24407;SDS011;12542;50.924;4.516;2023-09-08T02:21:12;11.85;;;8.02;;
24407;SDS011;12542;50.924;4.516;2023-09-08T02:23:38;11.88;;;8.73;;
24407;SDS011;12542;50.924;4.516;2023-09-08T02:26:04;10.52;;;7.80;;
24407;SDS011;12542;50.924;4.516;2023-09-08T02:28:29;10.15;;;8.07;;
24407;SDS011;12542;50.924;4.516;2023-09-08T02:30:55;11.45;;;8.40;;
24407;SDS011;12542;50.924;4.516;2023-09-08T02:33:21;12.68;;;8.27;;
24407;SDS011;12542;50.924;4.516;2023-09-08T02:35:47;11.68;;;8.77;;
24407;SDS011;12542;50.924;4.516;2023-09-08T02:38:12;16.00;;;8.52;;
24407;SDS011;12542;50.924;4.516;2023-09-08T02:40:38;11.27;;;7.95;;
24407;SDS011;12542;50.924;4.516;2023-09-08T02:43:04;13.70;;;8.27;;
24407;SDS011;12542;50.924;4.516;2023-09-08T02:45:30;18.80;;;9.55;;
24407;SDS011;12542;50.924;4.516;2023-09-08T02:47:55;14.30;;;9.52;;
24407;SDS011;12542;50.924;4.516;2023-09-08T02:50:21;13.80;;;9.45;;
24407;SDS011;12542;50.924;4.516;2023-09-08T02:52:47;16.23;;;10.23;;
24407;SDS011;12542;50.924;4.516;2023-09-08T02:55:13;13.05;;;9.32;;
24407;SDS011;12542;50.924;4.516;2023-09-08T02:57:39;11.98;;;9.27;;
24407;SDS011;12542;50.924;4.516;2023-09-08T03:00:05;14.63;;;9.98;;
24407;SDS011;12542;50.924;4.516;2023-09-08T03:02:32;10.93;;;8.98;;
24407;SDS011;12542;50.924;4.516;2023-09-08T03:04:59;11.98;;;9.50;;
24407;SDS011;12542;50.924;4.516;2023-09-08T03:07:25;13.80;;;8.65;;
24407;SDS011;12542;50.924;4.516;2023-09-08T03:09:51;11.18;;;9.75;;
24407;SDS011;12542;50.924;4.516;2023-09-08T03:12:17;13.57;;;8.93;;
24407;SDS011;12542;50.924;4.516;2023-09-08T03:14:43;13.45;;;9.13;;
24407;SDS011;12542;50.924;4.516;2023-09-08T03:17:10;12.25;;;9.20;;
24407;SDS011;12542;50.924;4.516;2023-09-08T03:19:36;10.48;;;8.45;;
24407;SDS011;12542;50.924;4.516;2023-09-08T03:22:02;13.68;;;7.80;;
24407;SDS011;12542;50.924;4.516;2023-09-08T03:24:28;10.98;;;8.98;;
24407;SDS011;12542;50.924;4.516;2023-09-08T03:26:53;9.73;;;8.18;;
24407;SDS011;12542;50.924;4.516;2023-09-08T03:29:19;12.68;;;8.15;;
24407;SDS011;12542;50.924;4.516;2023-09-08T03:31:45;12.95;;;8.38;;
24407;SDS011;12542;50.924;4.516;2023-09-08T03:34:10;12.27;;;8.27;;
24407;SDS011;12542;50.924;4.516;2023-09-08T03:36:36;13.95;;;9.15;;
24407;SDS011;12542;50.924;4.516;2023-09-08T03:39:02;16.38;;;9.07;;
24407;SDS011;12542;50.924;4.516;2023-09-08T03:41:28;13.73;;;8.55;;
24407;SDS011;12542;50.924;4.516;2023-09-08T03:43:54;10.73;;;7.93;;
24407;SDS011;12542;50.924;4.516;2023-09-08T03:46:20;12.63;;;7.93;;
24407;SDS011;12542;50.924;4.516;2023-09-08T03:48:46;18.60;;;8.18;;
24407;SDS011;12542;50.924;4.516;2023-09-08T03:51:11;8.55;;;7.45;;
24407;SDS011;12542;50.924;4.516;2023-09-08T03:53:37;13.68;;;7.70;;
24407;SDS011;12542;50.924;4.516;2023-09-08T03:56:05;9.85;;;8.32;;
24407;SDS011;12542;50.924;4.516;2023-09-08T03:58:31;12.55;;;8.25;;
24407;SDS011;12542;50.924;4.516;2023-09-08T04:00:58;11.48;;;8.27;;
24407;SDS011;12542;50.924;4.516;2023-09-08T04:03:24;11.18;;;8.13;;
24407;SDS011;12542;50.924;4.516;2023-09-08T04:05:50;10.10;;;7.88;;
24407;SDS011;12542;50.924;4.516;2023-09-08T04:08:15;10.43;;;7.68;;
24407;SDS011;12542;50.924;4.516;2023-09-08T04:10:41;11.02;;;8.00;;
24407;SDS011;12542;50.924;4.516;2023-09-08T04:13:09;11.35;;;7.75;;
24407;SDS011;12542;50.924;4.516;2023-09-08T04:15:35;12.32;;;7.43;;
24407;SDS011;12542;50.924;4.516;2023-09-08T04:18:04;11.65;;;7.75;;
24407;SDS011;12542;50.924;4.516;2023-09-08T04:20:30;9.80;;;7.45;;
24407;SDS011;12542;50.924;4.516;2023-09-08T04:22:56;10.93;;;7.22;;
24407;SDS011;12542;50.924;4.516;2023-09-08T04:25:24;10.55;;;6.47;;
24407;SDS011;12542;50.924;4.516;2023-09-08T04:27:50;11.90;;;7.18;;
24407;SDS011;12542;50.924;4.516;2023-09-08T04:30:15;10.30;;;7.00;;
24407;SDS011;12542;50.924;4.516;2023-09-08T04:32:42;12.93;;;8.55;;
24407;SDS011;12542;50.924;4.516;2023-09-08T04:35:08;10.75;;;7.97;;
24407;SDS011;12542;50.924;4.516;2023-09-08T04:37:34;14.65;;;8.07;;
24407;SDS011;12542;50.924;4.516;2023-09-08T04:40:04;12.05;;;7.55;;
24407;SDS011;12542;50.924;4.516;2023-09-08T04:42:30;11.30;;;7.93;;
24407;SDS011;12542;50.924;4.516;2023-09-08T04:44:56;10.02;;;8.40;;
24407;SDS011;12542;50.924;4.516;2023-09-08T04:47:24;12.85;;;7.93;;
24407;SDS011;12542;50.924;4.516;2023-09-08T04:49:49;14.38;;;8.75;;
24407;SDS011;12542;50.924;4.516;2023-09-08T04:52:15;13.55;;;8.10;;
24407;SDS011;12542;50.924;4.516;2023-09-08T04:54:41;14.13;;;7.97;;
24407;SDS011;12542;50.924;4.516;2023-09-08T04:57:07;12.82;;;8.68;;
24407;SDS011;12542;50.924;4.516;2023-09-08T04:59:32;11.68;;;8.55;;
24407;SDS011;12542;50.924;4.516;2023-09-08T05:01:58;12.10;;;9.18;;
24407;SDS011;12542;50.924;4.516;2023-09-08T05:04:24;14.75;;;9.45;;
24407;SDS011;12542;50.924;4.516;2023-09-08T05:06:50;11.07;;;8.52;;
24407;SDS011;12542;50.924;4.516;2023-09-08T05:09:18;12.18;;;8.02;;
24407;SDS011;12542;50.924;4.516;2023-09-08T05:11:44;11.20;;;8.35;;
24407;SDS011;12542;50.924;4.516;2023-09-08T05:14:09;13.57;;;8.40;;
24407;SDS011;12542;50.924;4.516;2023-09-08T05:16:35;10.95;;;9.05;;
24407;SDS011;12542;50.924;4.516;2023-09-08T05:19:11;13.13;;;9.45;;
24407;SDS011;12542;50.924;4.516;2023-09-08T05:21:38;12.48;;;8.02;;
24407;SDS011;12542;50.924;4.516;2023-09-08T05:24:05;11.27;;;8.40;;
24407;SDS011;12542;50.924;4.516;2023-09-08T05:26:31;13.75;;;8.65;;
24407;SDS011;12542;50.924;4.516;2023-09-08T05:28:57;14.30;;;9.15;;
24407;SDS011;12542;50.924;4.516;2023-09-08T05:31:23;14.85;;;9.00;;
24407;SDS011;12542;50.924;4.516;2023-09-08T05:33:51;14.98;;;9.43;;
24407;SDS011;12542;50.924;4.516;2023-09-08T05:36:16;15.00;;;9.63;;
24407;SDS011;12542;50.924;4.516;2023-09-08T05:38:42;12.93;;;8.95;;
24407;SDS011;12542;50.924;4.516;2023-09-08T05:41:08;19.55;;;9.38;;
24407;SDS011;12542;50.924;4.516;2023-09-08T05:43:34;14.25;;;9.20;;
24407;SDS011;12542;50.924;4.516;2023-09-08T05:46:00;11.90;;;8.43;;
24407;SDS011;12542;50.924;4.516;2023-09-08T05:48:25;9.50;;;7.90;;
24407;SDS011;12542;50.924;4.516;2023-09-08T05:50:51;10.07;;;7.40;;
24407;SDS011;12542;50.924;4.516;2023-09-08T05:53:17;8.43;;;6.72;;
24407;SDS011;12542;50.924;4.516;2023-09-08T05:55:42;8.82;;;6.07;;
24407;SDS011;12542;50.924;4.516;2023-09-08T05:58:11;10.07;;;6.35;;
24407;SDS011;12542;50.924;4.516;2023-09-08T06:00:36;9.57;;;6.18;;
24407;SDS011;12542;50.924;4.516;2023-09-08T06:03:02;12.52;;;5.72;;
24407;SDS011;12542;50.924;4.516;2023-09-08T06:05:28;7.95;;;5.45;;
24407;SDS011;12542;50.924;4.516;2023-09-08T06:07:54;7.47;;;5.25;;
24407;SDS011;12542;50.924;4.516;2023-09-08T06:10:20;9.93;;;6.13;;
24407;SDS011;12542;50.924;4.516;2023-09-08T06:12:48;10.18;;;5.35;;
24407;SDS011;12542;50.924;4.516;2023-09-08T06:15:15;10.15;;;5.47;;
24407;SDS011;12542;50.924;4.516;2023-09-08T06:17:42;9.65;;;5.25;;
24407;SDS011;12542;50.924;4.516;2023-09-08T06:20:07;7.97;;;4.78;;
24407;SDS011;12542;50.924;4.516;2023-09-08T06:22:34;9.88;;;5.50;;
24407;SDS011;12542;50.924;4.516;2023-09-08T06:24:59;12.98;;;5.55;;
24407;SDS011;12542;50.924;4.516;2023-09-08T06:27:25;10.10;;;5.25;;
24407;SDS011;12542;50.924;4.516;2023-09-08T06:29:51;6.28;;;4.53;;
24407;SDS011;12542;50.924;4.516;2023-09-08T06:32:16;11.57;;;5.10;;
24407;SDS011;12542;50.924;4.516;2023-09-08T06:34:42;7.03;;;4.70;;
24407;SDS011;12542;50.924;4.516;2023-09-08T06:37:08;12.25;;;5.22;;
24407;SDS011;12542;50.924;4.516;2023-09-08T06:39:34;9.57;;;5.13;;
24407;SDS011;12542;50.924;4.516;2023-09-08T06:41:59;10.80;;;5.15;;
24407;SDS011;12542;50.924;4.516;2023-09-08T06:44:25;8.45;;;5.72;;
24407;SDS011;12542;50.924;4.516;2023-09-08T06:46:51;11.25;;;5.82;;
24407;SDS011;12542;50.924;4.516;2023-09-08T06:49:16;9.45;;;6.22;;
24407;SDS011;12542;50.924;4.516;2023-09-08T06:51:42;8.07;;;5.65;;
24407;SDS011;12542;50.924;4.516;2023-09-08T06:54:08;9.40;;;5.60;;
24407;SDS011;12542;50.924;4.516;2023-09-08T06:56:35;8.00;;;5.47;;
24407;SDS011;12542;50.924;4.516;2023-09-08T06:59:01;10.23;;;5.55;;
24407;SDS011;12542;50.924;4.516;2023-09-08T07:01:29;6.93;;;5.20;;
24407;SDS011;12542;50.924;4.516;2023-09-08T07:03:55;8.20;;;5.47;;
24407;SDS011;12542;50.924;4.516;2023-09-08T07:06:21;11.73;;;5.90;;
24407;SDS011;12542;50.924;4.516;2023-09-08T07:08:47;8.27;;;5.60;;
24407;SDS011;12542;50.924;4.516;2023-09-08T07:11:15;8.88;;;5.38;;
24407;SDS011;12542;50.924;4.516;2023-09-08T07:13:41;8.85;;;5.65;;
24407;SDS011;12542;50.924;4.516;2023-09-08T07:16:07;12.20;;;5.75;;
24407;SDS011;12542;50.924;4.516;2023-09-08T07:18:32;8.98;;;6.25;;
24407;SDS011;12542;50.924;4.516;2023-09-08T07:21:01;8.40;;;6.18;;
24407;SDS011;12542;50.924;4.516;2023-09-08T07:23:30;12.48;;;5.95;;
24407;SDS011;12542;50.924;4.516;2023-09-08T07:25:55;7.80;;;5.70;;
24407;SDS011;12542;50.924;4.516;2023-09-08T07:28:21;7.95;;;5.68;;
24407;SDS011;12542;50.924;4.516;2023-09-08T07:30:47;9.15;;;5.82;;
24407;SDS011;12542;50.924;4.516;2023-09-08T07:33:12;16.60;;;6.25;;
24407;SDS011;12542;50.924;4.516;2023-09-08T07:35:38;6.47;;;5.22;;
24407;SDS011;12542;50.924;4.516;2023-09-08T07:38:05;10.15;;;5.40;;
24407;SDS011;12542;50.924;4.516;2023-09-08T07:40:32;8.23;;;4.90;;
24407;SDS011;12542;50.924;4.516;2023-09-08T07:42:58;7.53;;;4.68;;
24407;SDS011;12542;50.924;4.516;2023-09-08T07:45:24;5.90;;;4.45;;
24407;SDS011;12542;50.924;4.516;2023-09-08T07:47:50;8.93;;;4.68;;
24407;SDS011;12542;50.924;4.516;2023-09-08T07:50:25;5.82;;;4.40;;
24407;SDS011;12542;50.924;4.516;2023-09-08T07:52:53;8.95;;;4.68;;
24407;SDS011;12542;50.924;4.516;2023-09-08T07:55:20;9.25;;;5.22;;
24407;SDS011;12542;50.924;4.516;2023-09-08T07:57:53;6.63;;;4.87;;
24407;SDS011;12542;50.924;4.516;2023-09-08T08:00:20;9.02;;;4.80;;
24407;SDS011;12542;50.924;4.516;2023-09-08T08:02:47;6.45;;;4.95;;
24407;SDS011;12542;50.924;4.516;2023-09-08T08:05:18;12.07;;;5.82;;
24407;SDS011;12542;50.924;4.516;2023-09-08T08:07:43;7.97;;;5.68;;
24407;SDS011;12542;50.924;4.516;2023-09-08T08:10:10;9.10;;;5.00;;
24407;SDS011;12542;50.924;4.516;2023-09-08T08:12:37;6.45;;;4.65;;
24407;SDS011;12542;50.924;4.516;2023-09-08T08:15:04;10.77;;;4.90;;
24407;SDS011;12542;50.924;4.516;2023-09-08T08:17:30;7.00;;;4.65;;
24407;SDS011;12542;50.924;4.516;2023-09-08T08:19:56;8.55;;;4.70;;
24407;SDS011;12542;50.924;4.516;2023-09-08T08:22:31;9.80;;;4.70;;
24407;SDS011;12542;50.924;4.516;2023-09-08T08:24:57;8.65;;;5.30;;
24407;SDS011;12542;50.924;4.516;2023-09-08T08:27:25;9.05;;;4.90;;
24407;SDS011;12542;50.924;4.516;2023-09-08T08:29:51;9.50;;;5.25;;
24407;SDS011;12542;50.924;4.516;2023-09-08T08:32:19;10.23;;;4.80;;
24407;SDS011;12542;50.924;4.516;2023-09-08T08:34:45;10.23;;;5.38;;
24407;SDS011;12542;50.924;4.516;2023-09-08T08:37:10;10.07;;;4.63;;
24407;SDS011;12542;50.924;4.516;2023-09-08T08:39:36;8.23;;;5.35;;
24407;SDS011;12542;50.924;4.516;2023-09-08T08:42:11;14.27;;;5.50;;
24407;SDS011;12542;50.924;4.516;2023-09-08T08:44:38;11.10;;;6.13;;
24407;SDS011;12542;50.924;4.516;2023-09-08T08:47:06;9.82;;;5.50;;
24407;SDS011;12542;50.924;4.516;2023-09-08T08:49:32;19.80;;;5.97;;
24407;SDS011;12542;50.924;4.516;2023-09-08T08:51:59;12.63;;;5.45;;
24407;SDS011;12542;50.924;4.516;2023-09-08T08:54:32;10.65;;;4.85;;
24407;SDS011;12542;50.924;4.516;2023-09-08T08:57:03;13.05;;;5.70;;
24407;SDS011;12542;50.924;4.516;2023-09-08T08:59:30;14.68;;;5.40;;
24407;SDS011;12542;50.924;4.516;2023-09-08T09:01:57;9.38;;;5.53;;
24407;SDS011;12542;50.924;4.516;2023-09-08T09:04:23;13.40;;;5.88;;
24407;SDS011;12542;50.924;4.516;2023-09-08T09:06:50;12.20;;;5.45;;
24407;SDS011;12542;50.924;4.516;2023-09-08T09:09:17;14.77;;;5.22;;
24407;SDS011;12542;50.924;4.516;2023-09-08T09:11:44;15.65;;;4.72;;
24407;SDS011;12542;50.924;4.516;2023-09-08T09:14:10;16.23;;;5.00;;
24407;SDS011;12542;50.924;4.516;2023-09-08T09:16:40;10.10;;;4.47;;
24407;SDS011;12542;50.924;4.516;2023-09-08T09:19:06;9.88;;;4.93;;
24407;SDS011;12542;50.924;4.516;2023-09-08T09:21:42;9.15;;;4.85;;
24407;SDS011;12542;50.924;4.516;2023-09-08T09:24:27;16.05;;;5.15;;
24407;SDS011;12542;50.924;4.516;2023-09-08T09:26:58;12.15;;;4.88;;
24407;SDS011;12542;50.924;4.516;2023-09-08T09:29:29;10.07;;;4.35;;
24407;SDS011;12542;50.924;4.516;2023-09-08T09:31:56;9.30;;;4.15;;
24407;SDS011;12542;50.924;4.516;2023-09-08T09:34:27;10.98;;;4.45;;
24407;SDS011;12542;50.924;4.516;2023-09-08T09:36:53;9.48;;;4.53;;
24407;SDS011;12542;50.924;4.516;2023-09-08T09:39:19;10.23;;;4.90;;
24407;SDS011;12542;50.924;4.516;2023-09-08T09:41:46;15.23;;;4.85;;
24407;SDS011;12542;50.924;4.516;2023-09-08T09:44:13;11.77;;;4.25;;
24407;SDS011;12542;50.924;4.516;2023-09-08T09:46:42;7.88;;;4.25;;
24407;SDS011;12542;50.924;4.516;2023-09-08T09:49:12;10.18;;;4.65;;
24407;SDS011;12542;50.924;4.516;2023-09-08T09:51:44;8.45;;;4.97;;
24407;SDS011;12542;50.924;4.516;2023-09-08T09:54:16;10.32;;;4.95;;
24407;SDS011;12542;50.924;4.516;2023-09-08T09:56:43;7.22;;;4.35;;
24407;SDS011;12542;50.924;4.516;2023-09-08T09:59:09;12.65;;;4.60;;
24407;SDS011;12542;50.924;4.516;2023-09-08T10:01:41;8.32;;;4.72;;
24407;SDS011;12542;50.924;4.516;2023-09-08T10:04:07;10.40;;;4.85;;
24407;SDS011;12542;50.924;4.516;2023-09-08T10:06:34;10.48;;;5.10;;
24407;SDS011;12542;50.924;4.516;2023-09-08T10:09:01;13.90;;;4.95;;
24407;SDS011;12542;50.924;4.516;2023-09-08T10:11:49;10.35;;;5.22;;
24407;SDS011;12542;50.924;4.516;2023-09-08T10:14:17;15.77;;;5.05;;
24407;SDS011;12542;50.924;4.516;2023-09-08T10:16:44;10.52;;;4.72;;
24407;SDS011;12542;50.924;4.516;2023-09-08T10:19:14;9.10;;;4.95;;
24407;SDS011;12542;50.924;4.516;2023-09-08T10:21:42;10.68;;;5.00;;
24407;SDS011;12542;50.924;4.516;2023-09-08T10:24:18;7.95;;;4.75;;
24407;SDS011;12542;50.924;4.516;2023-09-08T10:27:07;11.73;;;4.80;;
24407;SDS011;12542;50.924;4.516;2023-09-08T10:29:34;9.88;;;4.90;;
24407;SDS011;12542;50.924;4.516;2023-09-08T10:32:01;8.35;;;4.50;;
24407;SDS011;12542;50.924;4.516;2023-09-08T10:34:27;7.00;;;3.97;;
24407;SDS011;12542;50.924;4.516;2023-09-08T10:36:57;7.63;;;4.30;;
24407;SDS011;12542;50.924;4.516;2023-09-08T10:47:24;8.25;;;5.30;;
24407;SDS011;12542;50.924;4.516;2023-09-08T10:49:51;8.70;;;4.43;;
24407;SDS011;12542;50.924;4.516;2023-09-08T10:52:20;8.95;;;4.43;;
24407;SDS011;12542;50.924;4.516;2023-09-08T10:54:53;7.32;;;4.15;;
24407;SDS011;12542;50.924;4.516;2023-09-08T10:57:21;8.43;;;4.10;;
24407;SDS011;12542;50.924;4.516;2023-09-08T11:02:41;7.72;;;4.10;;
24407;SDS011;12542;50.924;4.516;2023-09-08T11:05:08;11.98;;;4.78;;
24407;SDS011;12542;50.924;4.516;2023-09-08T11:07:39;13.95;;;4.35;;
24407;SDS011;12542;50.924;4.516;2023-09-08T11:10:06;9.07;;;4.15;;
24407;SDS011;12542;50.924;4.516;2023-09-08T11:12:33;7.13;;;3.88;;
24407;SDS011;12542;50.924;4.516;2023-09-08T11:14:59;11.13;;;3.78;;
24407;SDS011;12542;50.924;4.516;2023-09-08T11:17:30;11.68;;;4.35;;
24407;SDS011;12542;50.924;4.516;2023-09-08T11:19:57;11.55;;;4.20;;
24407;SDS011;12542;50.924;4.516;2023-09-08T11:22:23;10.00;;;4.97;;
24407;SDS011;12542;50.924;4.516;2023-09-08T11:24:55;7.05;;;4.90;;
24407;SDS011;12542;50.924;4.516;2023-09-08T11:27:22;11.15;;;4.82;;
24407;SDS011;12542;50.924;4.516;2023-09-08T11:29:49;7.60;;;4.43;;
24407;SDS011;12542;50.924;4.516;2023-09-08T11:32:16;8.75;;;4.82;;
24407;SDS011;12542;50.924;4.516;2023-09-08T11:34:44;8.60;;;4.40;;
24407;SDS011;12542;50.924;4.516;2023-09-08T11:37:14;7.93;;;3.80;;
24407;SDS011;12542;50.924;4.516;2023-09-08T11:39:43;6.68;;;3.88;;
24407;SDS011;12542;50.924;4.516;2023-09-08T11:42:12;11.00;;;3.95;;
24407;SDS011;12542;50.924;4.516;2023-09-08T11:44:39;7.28;;;3.70;;
24407;SDS011;12542;50.924;4.516;2023-09-08T11:47:09;12.25;;;3.85;;
24407;SDS011;12542;50.924;4.516;2023-09-08T11:49:36;10.68;;;4.15;;
24407;SDS011;12542;50.924;4.516;2023-09-08T11:52:03;11.30;;;4.05;;
24407;SDS011;12542;50.924;4.516;2023-09-08T11:54:31;7.30;;;3.92;;
24407;SDS011;12542;50.924;4.516;2023-09-08T11:57:00;12.02;;;4.78;;
24407;SDS011;12542;50.924;4.516;2023-09-08T11:59:28;9.93;;;4.07;;
24407;SDS011;12542;50.924;4.516;2023-09-08T12:01:59;7.10;;;4.00;;
24407;SDS011;12542;50.924;4.516;2023-09-08T12:04:25;7.00;;;4.05;;
24407;SDS011;12542;50.924;4.516;2023-09-08T12:06:51;8.93;;;4.10;;
24407;SDS011;12542;50.924;4.516;2023-09-08T12:09:19;8.32;;;3.88;;
24407;SDS011;12542;50.924;4.516;2023-09-08T12:11:46;10.40;;;4.38;;
24407;SDS011;12542;50.924;4.516;2023-09-08T12:14:12;9.30;;;4.03;;
24407;SDS011;12542;50.924;4.516;2023-09-08T12:16:39;7.30;;;3.97;;
24407;SDS011;12542;50.924;4.516;2023-09-08T12:19:09;9.98;;;4.18;;
24407;SDS011;12542;50.924;4.516;2023-09-08T12:21:58;7.95;;;3.97;;
24407;SDS011;12542;50.924;4.516;2023-09-08T12:27:22;5.80;;;3.63;;
24407;SDS011;12542;50.924;4.516;2023-09-08T12:30:06;7.90;;;3.67;;
24407;SDS011;12542;50.924;4.516;2023-09-08T12:32:34;6.55;;;4.20;;
24407;SDS011;12542;50.924;4.516;2023-09-08T12:35:01;8.40;;;3.47;;
24407;SDS011;12542;50.924;4.516;2023-09-08T12:37:28;9.38;;;3.92;;
24407;SDS011;12542;50.924;4.516;2023-09-08T12:39:55;8.20;;;4.18;;
24407;SDS011;12542;50.924;4.516;2023-09-08T12:42:21;8.52;;;2.80;;
24407;SDS011;12542;50.924;4.516;2023-09-08T12:44:51;7.43;;;2.63;;
24407;SDS011;12542;50.924;4.516;2023-09-08T12:47:18;11.15;;;3.03;;
24407;SDS011;12542;50.924;4.516;2023-09-08T12:49:46;8.00;;;2.63;;
24407;SDS011;12542;50.924;4.516;2023-09-08T12:52:11;9.27;;;2.80;;
24407;SDS011;12542;50.924;4.516;2023-09-08T12:54:37;11.40;;;3.10;;
24407;SDS011;12542;50.924;4.516;2023-09-08T12:57:03;7.68;;;2.80;;
24407;SDS011;12542;50.924;4.516;2023-09-08T12:59:31;6.03;;;2.83;;
24407;SDS011;12542;50.924;4.516;2023-09-08T13:01:56;7.43;;;2.83;;
24407;SDS011;12542;50.924;4.516;2023-09-08T13:04:23;8.25;;;2.83;;
24407;SDS011;12542;50.924;4.516;2023-09-08T13:06:49;7.03;;;2.50;;
24407;SDS011;12542;50.924;4.516;2023-09-08T13:09:15;5.20;;;2.30;;
24407;SDS011;12542;50.924;4.516;2023-09-08T13:11:43;7.65;;;2.78;;
24407;SDS011;12542;50.924;4.516;2023-09-08T13:14:09;7.40;;;2.58;;
24407;SDS011;12542;50.924;4.516;2023-09-08T13:16:34;7.80;;;2.47;;
24407;SDS011;12542;50.924;4.516;2023-09-08T13:19:00;12.70;;;2.65;;
24407;SDS011;12542;50.924;4.516;2023-09-08T13:21:26;6.10;;;2.60;;
24407;SDS011;12542;50.924;4.516;2023-09-08T13:23:52;7.70;;;2.55;;
24407;SDS011;12542;50.924;4.516;2023-09-08T13:26:17;7.90;;;2.80;;
24407;SDS011;12542;50.924;4.516;2023-09-08T13:28:43;8.00;;;2.67;;
24407;SDS011;12542;50.924;4.516;2023-09-08T13:31:09;9.48;;;3.40;;
24407;SDS011;12542;50.924;4.516;2023-09-08T13:33:35;8.10;;;2.70;;
24407;SDS011;12542;50.924;4.516;2023-09-08T13:36:00;8.82;;;2.85;;
24407;SDS011;12542;50.924;4.516;2023-09-08T13:38:26;13.05;;;3.20;;
24407;SDS011;12542;50.924;4.516;2023-09-08T13:40:54;15.10;;;3.42;;
24407;SDS011;12542;50.924;4.516;2023-09-08T13:43:20;10.95;;;2.88;;
24407;SDS011;12542;50.924;4.516;2023-09-08T13:45:46;10.48;;;3.03;;
24407;SDS011;12542;50.924;4.516;2023-09-08T13:48:12;10.48;;;2.95;;
24407;SDS011;12542;50.924;4.516;2023-09-08T13:50:38;9.63;;;2.83;;
24407;SDS011;12542;50.924;4.516;2023-09-08T13:53:05;14.93;;;3.38;;
24407;SDS011;12542;50.924;4.516;2023-09-08T13:55:31;20.70;;;3.60;;
24407;SDS011;12542;50.924;4.516;2023-09-08T13:57:56;12.20;;;3.15;;
24407;SDS011;12542;50.924;4.516;2023-09-08T14:00:22;12.35;;;3.35;;
24407;SDS011;12542;50.924;4.516;2023-09-08T14:02:48;12.27;;;2.85;;
24407;SDS011;12542;50.924;4.516;2023-09-08T14:05:13;13.63;;;3.15;;
24407;SDS011;12542;50.924;4.516;2023-09-08T14:07:39;13.82;;;3.30;;
24407;SDS011;12542;50.924;4.516;2023-09-08T14:10:05;16.45;;;4.20;;
24407;SDS011;12542;50.924;4.516;2023-09-08T14:12:34;9.15;;;3.08;;
24407;SDS011;12542;50.924;4.516;2023-09-08T14:15:02;9.93;;;3.60;;
24407;SDS011;12542;50.924;4.516;2023-09-08T14:17:29;12.55;;;3.75;;
24407;SDS011;12542;50.924;4.516;2023-09-08T14:19:54;17.48;;;3.80;;
24407;SDS011;12542;50.924;4.516;2023-09-08T14:22:22;11.38;;;3.40;;
24407;SDS011;12542;50.924;4.516;2023-09-08T14:24:48;10.45;;;3.30;;
24407;SDS011;12542;50.924;4.516;2023-09-08T14:27:14;12.63;;;3.80;;
24407;SDS011;12542;50.924;4.516;2023-09-08T14:29:39;16.38;;;4.22;;
24407;SDS011;12542;50.924;4.516;2023-09-08T14:32:05;16.60;;;3.75;;
24407;SDS011;12542;50.924;4.516;2023-09-08T14:34:31;16.63;;;4.32;;
24407;SDS011;12542;50.924;4.516;2023-09-08T14:36:56;14.98;;;3.60;;
24407;SDS011;12542;50.924;4.516;2023-09-08T14:39:24;12.75;;;4.05;;
24407;SDS011;12542;50.924;4.516;2023-09-08T14:41:51;21.90;;;4.22;;
24407;SDS011;12542;50.924;4.516;2023-09-08T14:44:18;16.98;;;4.28;;
24407;SDS011;12542;50.924;4.516;2023-09-08T14:46:46;17.48;;;3.70;;
24407;SDS011;12542;50.924;4.516;2023-09-08T14:49:11;24.33;;;4.63;;
24407;SDS011;12542;50.924;4.516;2023-09-08T14:51:39;25.65;;;4.32;;